메인 페이지
METAR-TAF:

METAR-TAF

공항 :

캘거리, 앨버타, 캐나다

캘거리 국제공항

위도: 51-07N, 경도: 114-01W, 고도: 1077m

현재 날씨관측

예보는 1 시간 7분 전, 20:00시(UTC)에 발표되었습니다.
남남동12kt, 순간 최대 풍속 17kt
온도 9°C
습도 46%
기압 1019 hPa
시정: 64.4km
고도 5000ft 상공 구름 조금
고도 22000ft 상공 구름 조금
고도 27000ft 상공 구름 조금

METAR: CYYC 192000Z 15012G17KT 40SM FEW050 FEW220 FEW270 09/M02 A3009 RMK CU1CI1CI1 CU TR CI TR CI TR SLP229

시각: 15:07 (21:07 UTC)

예보

예보는 29분 전, 20:38시(UTC)에 발표되었습니다.
예보 대상 시간: 19일 21시부터 20일 18시까지 (UTC)
남남동12kt, 순간 최대 풍속 22kt
시정: 10km
고도 5000ft 상공 구름 조금
전환 중
20일 03시부터 20일 05시까지 (UTC)
서남서5kt
20일 1000시부터 (UTC)
여러 방향의 바람 3kt
시정: 10km
맑음
20일 1700시부터 (UTC)
8kt
시정: 10km
고도 10000ft 상공 구름 보통

TAF: CYYC 192038Z 1921/2018 16012G22KT P6SM FEW050 BECMG 2003/2005 25005KT FM201000 VRB03KT P6SM SKC FM201700 17008KT P6SM SCT100 RMK NXT FCST BY 200000Z

4,000개 이상의 공항 관측 자료 및 예보 (METAR 및 TAF 보고).

지도상에서 검색 가능한 기상관측소가 노란 점과 빨간 점으로 표시되어 있습니다.

기상관측소 명을 보려면 표시 위로 마우스를 이동하세요.

날씨 관측과 예보를 보려면 클릭하세요.

지도 변경 : 확대하려면 엑스 표시가 있는 녹색 버튼, 축소하려면 빼기 표시가 있는 녹색 버튼, 다음 페이지의 지도를 보려면 녹색 화살표를 클릭하세요.


METAR-TAF: